sensor_id;sensor_type;location;lat;lon;timestamp;temperature;humidity
58469;DHT22;44257;44.804;10.220;2023-04-16T00:00:22;8.00;99.90
58469;DHT22;44257;44.804;10.220;2023-04-16T00:02:47;8.00;99.90
58469;DHT22;44257;44.804;10.220;2023-04-16T00:05:14;8.00;99.90
58469;DHT22;44257;44.804;10.220;2023-04-16T00:07:39;8.00;99.90
58469;DHT22;44257;44.804;10.220;2023-04-16T00:10:06;8.00;99.90
58469;DHT22;44257;44.804;10.220;2023-04-16T00:12:32;8.00;99.90
58469;DHT22;44257;44.804;10.220;2023-04-16T00:14:58;8.00;99.90
58469;DHT22;44257;44.804;10.220;2023-04-16T00:17:24;8.10;99.90
58469;DHT22;44257;44.804;10.220;2023-04-16T00:19:50;8.00;99.90
58469;DHT22;44257;44.804;10.220;2023-04-16T00:22:15;7.90;99.90
58469;DHT22;44257;44.804;10.220;2023-04-16T00:24:41;7.80;99.90
58469;DHT22;44257;44.804;10.220;2023-04-16T00:27:07;7.60;99.90
58469;DHT22;44257;44.804;10.220;2023-04-16T00:29:33;7.40;99.90
58469;DHT22;44257;44.804;10.220;2023-04-16T00:32:00;7.30;99.90
58469;DHT22;44257;44.804;10.220;2023-04-16T00:34:26;7.20;99.90
58469;DHT22;44257;44.804;10.220;2023-04-16T00:36:52;7.20;99.90
58469;DHT22;44257;44.804;10.220;2023-04-16T00:39:18;7.20;99.90
58469;DHT22;44257;44.804;10.220;2023-04-16T00:41:45;7.10;99.90
58469;DHT22;44257;44.804;10.220;2023-04-16T00:44:10;7.10;99.90
58469;DHT22;44257;44.804;10.220;2023-04-16T00:46:36;7.10;99.90
58469;DHT22;44257;44.804;10.220;2023-04-16T00:49:03;7.10;99.90
58469;DHT22;44257;44.804;10.220;2023-04-16T00:51:29;7.10;99.90
58469;DHT22;44257;44.804;10.220;2023-04-16T00:53:56;7.10;99.90
58469;DHT22;44257;44.804;10.220;2023-04-16T00:56:23;7.20;99.90
58469;DHT22;44257;44.804;10.220;2023-04-16T00:58:49;7.20;99.90
58469;DHT22;44257;44.804;10.220;2023-04-16T01:01:15;7.20;99.90
58469;DHT22;44257;44.804;10.220;2023-04-16T01:03:46;7.20;99.90
58469;DHT22;44257;44.804;10.220;2023-04-16T01:06:13;7.10;99.90
58469;DHT22;44257;44.804;10.220;2023-04-16T01:08:39;7.10;99.90
58469;DHT22;44257;44.804;10.220;2023-04-16T01:11:05;7.10;99.90
58469;DHT22;44257;44.804;10.220;2023-04-16T01:13:32;7.10;99.90
58469;DHT22;44257;44.804;10.220;2023-04-16T01:15:58;7.10;99.90
58469;DHT22;44257;44.804;10.220;2023-04-16T01:18:25;7.10;99.90
58469;DHT22;44257;44.804;10.220;2023-04-16T01:20:51;7.10;99.90
58469;DHT22;44257;44.804;10.220;2023-04-16T01:23:18;7.10;99.90
58469;DHT22;44257;44.804;10.220;2023-04-16T01:25:44;7.10;99.90
58469;DHT22;44257;44.804;10.220;2023-04-16T01:28:10;7.20;99.90
58469;DHT22;44257;44.804;10.220;2023-04-16T01:30:36;7.20;99.90
58469;DHT22;44257;44.804;10.220;2023-04-16T01:33:12;7.20;99.90
58469;DHT22;44257;44.804;10.220;2023-04-16T01:35:39;7.30;99.90
58469;DHT22;44257;44.804;10.220;2023-04-16T01:38:07;7.30;99.90
58469;DHT22;44257;44.804;10.220;2023-04-16T01:40:34;7.20;99.90
58469;DHT22;44257;44.804;10.220;2023-04-16T01:43:00;7.20;99.90
58469;DHT22;44257;44.804;10.220;2023-04-16T01:45:26;7.10;99.90
58469;DHT22;44257;44.804;10.220;2023-04-16T01:47:52;7.00;99.90
58469;DHT22;44257;44.804;10.220;2023-04-16T01:50:19;6.90;99.90
58469;DHT22;44257;44.804;10.220;2023-04-16T01:52:45;6.90;99.90
58469;DHT22;44257;44.804;10.220;2023-04-16T01:55:12;6.80;99.90
58469;DHT22;44257;44.804;10.220;2023-04-16T01:57:38;6.70;99.90
58469;DHT22;44257;44.804;10.220;2023-04-16T02:00:04;6.60;99.90
58469;DHT22;44257;44.804;10.220;2023-04-16T02:02:32;6.50;99.90
58469;DHT22;44257;44.804;10.220;2023-04-16T02:04:58;6.40;99.90
58469;DHT22;44257;44.804;10.220;2023-04-16T02:07:24;6.30;99.90
58469;DHT22;44257;44.804;10.220;2023-04-16T02:09:50;6.20;99.90
58469;DHT22;44257;44.804;10.220;2023-04-16T02:12:16;6.20;99.90
58469;DHT22;44257;44.804;10.220;2023-04-16T02:14:42;6.20;99.90
58469;DHT22;44257;44.804;10.220;2023-04-16T02:17:09;6.20;99.90
58469;DHT22;44257;44.804;10.220;2023-04-16T02:19:37;6.20;99.90
58469;DHT22;44257;44.804;10.220;2023-04-16T02:22:03;6.30;99.90
58469;DHT22;44257;44.804;10.220;2023-04-16T02:24:29;6.30;99.90
58469;DHT22;44257;44.804;10.220;2023-04-16T02:26:56;6.30;99.90
58469;DHT22;44257;44.804;10.220;2023-04-16T02:29:22;6.30;99.90
58469;DHT22;44257;44.804;10.220;2023-04-16T02:32:01;6.30;99.90
58469;DHT22;44257;44.804;10.220;2023-04-16T02:34:28;6.40;99.90
58469;DHT22;44257;44.804;10.220;2023-04-16T02:36:54;6.40;99.90
58469;DHT22;44257;44.804;10.220;2023-04-16T02:39:20;6.40;99.90
58469;DHT22;44257;44.804;10.220;2023-04-16T02:41:46;6.40;99.90
58469;DHT22;44257;44.804;10.220;2023-04-16T02:44:12;6.40;99.90
58469;DHT22;44257;44.804;10.220;2023-04-16T02:46:38;6.50;99.90
58469;DHT22;44257;44.804;10.220;2023-04-16T02:49:04;6.50;99.90
58469;DHT22;44257;44.804;10.220;2023-04-16T02:51:30;6.40;99.90
58469;DHT22;44257;44.804;10.220;2023-04-16T02:53:57;6.30;99.90
58469;DHT22;44257;44.804;10.220;2023-04-16T02:56:23;6.20;99.90
58469;DHT22;44257;44.804;10.220;2023-04-16T02:58:49;6.20;99.90
58469;DHT22;44257;44.804;10.220;2023-04-16T03:01:15;6.10;99.90
58469;DHT22;44257;44.804;10.220;2023-04-16T03:03:41;6.10;99.90
58469;DHT22;44257;44.804;10.220;2023-04-16T03:06:06;6.10;99.90
58469;DHT22;44257;44.804;10.220;2023-04-16T03:08:32;6.10;99.90
58469;DHT22;44257;44.804;10.220;2023-04-16T03:10:58;6.10;99.90
58469;DHT22;44257;44.804;10.220;2023-04-16T03:13:24;6.10;99.90
58469;DHT22;44257;44.804;10.220;2023-04-16T03:15:50;6.10;99.90
58469;DHT22;44257;44.804;10.220;2023-04-16T03:18:16;6.20;99.90
58469;DHT22;44257;44.804;10.220;2023-04-16T03:20:42;6.20;99.90
58469;DHT22;44257;44.804;10.220;2023-04-16T03:23:08;6.20;99.90
58469;DHT22;44257;44.804;10.220;2023-04-16T03:25:34;6.30;99.90
58469;DHT22;44257;44.804;10.220;2023-04-16T03:27:59;6.30;99.90
58469;DHT22;44257;44.804;10.220;2023-04-16T03:30:25;6.30;99.90
58469;DHT22;44257;44.804;10.220;2023-04-16T03:32:51;6.30;99.90
58469;DHT22;44257;44.804;10.220;2023-04-16T03:35:17;6.30;99.90
58469;DHT22;44257;44.804;10.220;2023-04-16T03:37:46;6.30;99.90
58469;DHT22;44257;44.804;10.220;2023-04-16T03:40:12;6.20;99.90
58469;DHT22;44257;44.804;10.220;2023-04-16T03:42:39;6.10;99.90
58469;DHT22;44257;44.804;10.220;2023-04-16T03:45:05;6.00;99.90
58469;DHT22;44257;44.804;10.220;2023-04-16T03:47:33;6.00;99.90
58469;DHT22;44257;44.804;10.220;2023-04-16T03:50:02;5.90;99.90
58469;DHT22;44257;44.804;10.220;2023-04-16T03:52:28;5.80;99.90
58469;DHT22;44257;44.804;10.220;2023-04-16T03:54:54;5.80;99.90
58469;DHT22;44257;44.804;10.220;2023-04-16T03:57:24;5.70;99.90
58469;DHT22;44257;44.804;10.220;2023-04-16T03:59:55;5.70;99.90
58469;DHT22;44257;44.804;10.220;2023-04-16T04:02:22;5.70;99.90
58469;DHT22;44257;44.804;10.220;2023-04-16T04:04:47;5.70;99.90
58469;DHT22;44257;44.804;10.220;2023-04-16T04:07:15;5.70;99.90
58469;DHT22;44257;44.804;10.220;2023-04-16T04:09:41;5.50;99.90
58469;DHT22;44257;44.804;10.220;2023-04-16T04:12:07;5.50;99.90
58469;DHT22;44257;44.804;10.220;2023-04-16T04:14:35;5.50;99.90
58469;DHT22;44257;44.804;10.220;2023-04-16T04:17:06;5.50;99.90
58469;DHT22;44257;44.804;10.220;2023-04-16T04:19:32;5.50;99.90
58469;DHT22;44257;44.804;10.220;2023-04-16T04:21:58;5.50;99.90
58469;DHT22;44257;44.804;10.220;2023-04-16T04:24:24;5.50;99.90
58469;DHT22;44257;44.804;10.220;2023-04-16T04:26:52;5.50;99.90
58469;DHT22;44257;44.804;10.220;2023-04-16T04:29:18;5.60;99.90
58469;DHT22;44257;44.804;10.220;2023-04-16T04:31:44;5.70;99.90
58469;DHT22;44257;44.804;10.220;2023-04-16T04:34:10;5.80;99.90
58469;DHT22;44257;44.804;10.220;2023-04-16T04:36:36;5.80;99.90
58469;DHT22;44257;44.804;10.220;2023-04-16T04:39:02;5.90;99.90
58469;DHT22;44257;44.804;10.220;2023-04-16T04:41:28;5.90;99.90
58469;DHT22;44257;44.804;10.220;2023-04-16T04:43:54;5.90;99.90
58469;DHT22;44257;44.804;10.220;2023-04-16T04:46:20;5.80;99.90
58469;DHT22;44257;44.804;10.220;2023-04-16T04:48:46;5.80;99.90
58469;DHT22;44257;44.804;10.220;2023-04-16T04:51:11;5.90;99.90
58469;DHT22;44257;44.804;10.220;2023-04-16T04:53:37;5.90;99.90
58469;DHT22;44257;44.804;10.220;2023-04-16T04:56:04;5.80;99.90
58469;DHT22;44257;44.804;10.220;2023-04-16T04:58:30;5.70;99.90
58469;DHT22;44257;44.804;10.220;2023-04-16T05:00:56;5.60;99.90
58469;DHT22;44257;44.804;10.220;2023-04-16T05:03:22;5.60;99.90
58469;DHT22;44257;44.804;10.220;2023-04-16T05:05:48;5.70;99.90
58469;DHT22;44257;44.804;10.220;2023-04-16T05:08:14;5.70;99.90
58469;DHT22;44257;44.804;10.220;2023-04-16T05:10:40;5.80;99.90
58469;DHT22;44257;44.804;10.220;2023-04-16T05:13:06;6.00;99.90
58469;DHT22;44257;44.804;10.220;2023-04-16T05:15:31;6.10;99.90
58469;DHT22;44257;44.804;10.220;2023-04-16T05:17:57;6.30;99.90
58469;DHT22;44257;44.804;10.220;2023-04-16T05:20:23;6.50;99.90
58469;DHT22;44257;44.804;10.220;2023-04-16T05:22:49;6.60;99.90
58469;DHT22;44257;44.804;10.220;2023-04-16T05:25:16;6.70;99.90
58469;DHT22;44257;44.804;10.220;2023-04-16T05:27:42;6.80;99.90
58469;DHT22;44257;44.804;10.220;2023-04-16T05:30:08;7.00;99.90
58469;DHT22;44257;44.804;10.220;2023-04-16T05:32:35;7.20;99.90
58469;DHT22;44257;44.804;10.220;2023-04-16T05:35:01;7.30;99.90
58469;DHT22;44257;44.804;10.220;2023-04-16T05:37:27;7.60;99.90
58469;DHT22;44257;44.804;10.220;2023-04-16T05:39:53;7.80;99.90
58469;DHT22;44257;44.804;10.220;2023-04-16T05:42:18;8.00;99.90
58469;DHT22;44257;44.804;10.220;2023-04-16T05:44:44;8.30;99.90
58469;DHT22;44257;44.804;10.220;2023-04-16T05:47:10;8.60;99.90
58469;DHT22;44257;44.804;10.220;2023-04-16T05:49:36;9.10;99.90
58469;DHT22;44257;44.804;10.220;2023-04-16T05:52:05;9.70;99.90
58469;DHT22;44257;44.804;10.220;2023-04-16T05:54:31;10.50;99.90
58469;DHT22;44257;44.804;10.220;2023-04-16T05:56:58;11.10;99.90
58469;DHT22;44257;44.804;10.220;2023-04-16T05:59:24;11.80;99.90
58469;DHT22;44257;44.804;10.220;2023-04-16T06:01:50;12.40;99.90
58469;DHT22;44257;44.804;10.220;2023-04-16T06:04:15;13.00;99.90
58469;DHT22;44257;44.804;10.220;2023-04-16T06:06:41;13.50;99.90
58469;DHT22;44257;44.804;10.220;2023-04-16T06:09:07;13.80;99.90
58469;DHT22;44257;44.804;10.220;2023-04-16T06:11:33;14.10;99.90
58469;DHT22;44257;44.804;10.220;2023-04-16T06:13:58;14.40;99.90
58469;DHT22;44257;44.804;10.220;2023-04-16T06:16:24;14.60;99.90
58469;DHT22;44257;44.804;10.220;2023-04-16T06:18:50;14.60;99.90
58469;DHT22;44257;44.804;10.220;2023-04-16T06:21:16;15.00;99.90
58469;DHT22;44257;44.804;10.220;2023-04-16T06:23:41;15.30;99.90
58469;DHT22;44257;44.804;10.220;2023-04-16T06:26:07;15.60;99.90
58469;DHT22;44257;44.804;10.220;2023-04-16T06:28:33;15.60;99.90
58469;DHT22;44257;44.804;10.220;2023-04-16T06:30:59;15.50;99.90
58469;DHT22;44257;44.804;10.220;2023-04-16T06:33:25;15.20;99.90
58469;DHT22;44257;44.804;10.220;2023-04-16T06:35:50;14.80;99.90
58469;DHT22;44257;44.804;10.220;2023-04-16T06:38:17;14.70;99.90
58469;DHT22;44257;44.804;10.220;2023-04-16T06:40:43;14.70;99.90
58469;DHT22;44257;44.804;10.220;2023-04-16T06:43:09;14.60;99.90
58469;DHT22;44257;44.804;10.220;2023-04-16T06:45:34;14.40;99.90
58469;DHT22;44257;44.804;10.220;2023-04-16T06:48:00;14.40;99.90
58469;DHT22;44257;44.804;10.220;2023-04-16T06:50:27;14.50;99.90
58469;DHT22;44257;44.804;10.220;2023-04-16T06:52:54;14.50;99.90
58469;DHT22;44257;44.804;10.220;2023-04-16T06:55:20;14.60;99.90
58469;DHT22;44257;44.804;10.220;2023-04-16T06:57:46;14.60;99.90
58469;DHT22;44257;44.804;10.220;2023-04-16T07:00:12;14.70;99.90
58469;DHT22;44257;44.804;10.220;2023-04-16T07:02:37;14.70;99.90
58469;DHT22;44257;44.804;10.220;2023-04-16T07:05:04;14.80;99.90
58469;DHT22;44257;44.804;10.220;2023-04-16T07:07:31;14.90;99.90
58469;DHT22;44257;44.804;10.220;2023-04-16T07:09:58;14.90;99.90
58469;DHT22;44257;44.804;10.220;2023-04-16T07:12:24;15.00;99.90
58469;DHT22;44257;44.804;10.220;2023-04-16T07:14:50;15.10;99.90
58469;DHT22;44257;44.804;10.220;2023-04-16T07:17:16;15.10;99.90
58469;DHT22;44257;44.804;10.220;2023-04-16T07:19:41;15.30;99.90
58469;DHT22;44257;44.804;10.220;2023-04-16T07:22:07;15.40;99.90
58469;DHT22;44257;44.804;10.220;2023-04-16T07:24:33;15.40;99.90
58469;DHT22;44257;44.804;10.220;2023-04-16T07:27:00;15.50;99.90
58469;DHT22;44257;44.804;10.220;2023-04-16T07:29:26;15.70;99.90
58469;DHT22;44257;44.804;10.220;2023-04-16T07:31:52;15.80;99.90
58469;DHT22;44257;44.804;10.220;2023-04-16T07:34:18;16.00;99.90
58469;DHT22;44257;44.804;10.220;2023-04-16T07:36:44;16.10;99.90
58469;DHT22;44257;44.804;10.220;2023-04-16T07:39:10;16.10;99.90
58469;DHT22;44257;44.804;10.220;2023-04-16T07:41:36;15.90;99.90
58469;DHT22;44257;44.804;10.220;2023-04-16T07:44:02;16.10;99.90
58469;DHT22;44257;44.804;10.220;2023-04-16T07:46:28;16.20;99.90
58469;DHT22;44257;44.804;10.220;2023-04-16T07:48:54;16.40;99.90
58469;DHT22;44257;44.804;10.220;2023-04-16T07:51:20;16.50;99.90
58469;DHT22;44257;44.804;10.220;2023-04-16T07:53:46;16.70;99.90
58469;DHT22;44257;44.804;10.220;2023-04-16T07:56:12;16.80;99.90
58469;DHT22;44257;44.804;10.220;2023-04-16T07:58:38;17.00;99.90
58469;DHT22;44257;44.804;10.220;2023-04-16T08:01:04;17.10;99.90
58469;DHT22;44257;44.804;10.220;2023-04-16T08:03:30;17.20;99.90
58469;DHT22;44257;44.804;10.220;2023-04-16T08:05:57;17.30;99.90
58469;DHT22;44257;44.804;10.220;2023-04-16T08:08:23;17.40;99.90
58469;DHT22;44257;44.804;10.220;2023-04-16T08:10:49;17.40;99.90
58469;DHT22;44257;44.804;10.220;2023-04-16T08:13:15;17.50;99.90
58469;DHT22;44257;44.804;10.220;2023-04-16T08:15:40;17.50;99.90
58469;DHT22;44257;44.804;10.220;2023-04-16T08:18:06;17.50;99.90
58469;DHT22;44257;44.804;10.220;2023-04-16T08:20:38;17.20;99.90
58469;DHT22;44257;44.804;10.220;2023-04-16T08:23:04;16.80;99.90
58469;DHT22;44257;44.804;10.220;2023-04-16T08:25:29;16.50;99.90
58469;DHT22;44257;44.804;10.220;2023-04-16T08:27:55;16.50;99.90
58469;DHT22;44257;44.804;10.220;2023-04-16T08:30:21;16.60;99.90
58469;DHT22;44257;44.804;10.220;2023-04-16T08:32:47;16.70;99.90
58469;DHT22;44257;44.804;10.220;2023-04-16T08:35:13;16.90;99.90
58469;DHT22;44257;44.804;10.220;2023-04-16T08:37:39;17.10;99.90
58469;DHT22;44257;44.804;10.220;2023-04-16T08:40:06;17.20;99.90
58469;DHT22;44257;44.804;10.220;2023-04-16T08:42:45;17.50;99.90
58469;DHT22;44257;44.804;10.220;2023-04-16T08:45:15;17.50;99.90
58469;DHT22;44257;44.804;10.220;2023-04-16T08:47:45;17.70;99.90
58469;DHT22;44257;44.804;10.220;2023-04-16T08:50:18;17.80;99.90
58469;DHT22;44257;44.804;10.220;2023-04-16T08:52:57;18.00;99.90
58469;DHT22;44257;44.804;10.220;2023-04-16T08:55:35;18.10;99.90
58469;DHT22;44257;44.804;10.220;2023-04-16T08:58:17;18.10;99.90
58469;DHT22;44257;44.804;10.220;2023-04-16T09:00:43;18.00;99.90
58469;DHT22;44257;44.804;10.220;2023-04-16T09:03:11;18.10;99.90
58469;DHT22;44257;44.804;10.220;2023-04-16T09:05:38;18.20;99.90
58469;DHT22;44257;44.804;10.220;2023-04-16T09:08:07;18.20;99.90
58469;DHT22;44257;44.804;10.220;2023-04-16T09:10:33;18.10;99.90
58469;DHT22;44257;44.804;10.220;2023-04-16T09:12:59;18.20;99.90
58469;DHT22;44257;44.804;10.220;2023-04-16T09:15:26;18.40;99.90
58469;DHT22;44257;44.804;10.220;2023-04-16T09:17:52;18.50;99.90
58469;DHT22;44257;44.804;10.220;2023-04-16T09:20:18;18.50;99.90
58469;DHT22;44257;44.804;10.220;2023-04-16T09:22:44;18.60;99.90
58469;DHT22;44257;44.804;10.220;2023-04-16T09:25:11;18.70;99.90
58469;DHT22;44257;44.804;10.220;2023-04-16T09:27:38;18.70;99.90
58469;DHT22;44257;44.804;10.220;2023-04-16T09:30:23;18.60;99.90
58469;DHT22;44257;44.804;10.220;2023-04-16T09:32:51;18.50;99.90
58469;DHT22;44257;44.804;10.220;2023-04-16T09:35:20;18.40;99.90
58469;DHT22;44257;44.804;10.220;2023-04-16T09:37:56;18.50;99.90
58469;DHT22;44257;44.804;10.220;2023-04-16T09:40:26;18.50;99.80
58469;DHT22;44257;44.804;10.220;2023-04-16T09:42:57;18.30;99.90
58469;DHT22;44257;44.804;10.220;2023-04-16T09:45:26;18.30;99.90
58469;DHT22;44257;44.804;10.220;2023-04-16T09:48:01;18.40;99.90
58469;DHT22;44257;44.804;10.220;2023-04-16T09:50:28;18.60;99.80
58469;DHT22;44257;44.804;10.220;2023-04-16T09:52:54;18.80;98.70
58469;DHT22;44257;44.804;10.220;2023-04-16T09:55:26;18.80;99.00
58469;DHT22;44257;44.804;10.220;2023-04-16T09:57:58;18.80;98.10
58469;DHT22;44257;44.804;10.220;2023-04-16T10:00:25;18.90;98.90
58469;DHT22;44257;44.804;10.220;2023-04-16T10:03:03;19.00;97.30
58469;DHT22;44257;44.804;10.220;2023-04-16T10:05:29;19.00;98.00
58469;DHT22;44257;44.804;10.220;2023-04-16T10:07:59;19.10;99.10
58469;DHT22;44257;44.804;10.220;2023-04-16T10:10:25;19.30;97.80
58469;DHT22;44257;44.804;10.220;2023-04-16T10:12:52;19.30;95.90
58469;DHT22;44257;44.804;10.220;2023-04-16T10:15:19;19.30;97.20
58469;DHT22;44257;44.804;10.220;2023-04-16T10:17:46;19.30;97.60
58469;DHT22;44257;44.804;10.220;2023-04-16T10:20:13;19.30;96.00
58469;DHT22;44257;44.804;10.220;2023-04-16T10:22:40;19.40;96.90
58469;DHT22;44257;44.804;10.220;2023-04-16T10:25:06;19.60;96.30
58469;DHT22;44257;44.804;10.220;2023-04-16T10:27:34;19.80;96.20
58469;DHT22;44257;44.804;10.220;2023-04-16T10:30:01;19.90;95.50
58469;DHT22;44257;44.804;10.220;2023-04-16T10:32:28;20.10;94.40
58469;DHT22;44257;44.804;10.220;2023-04-16T10:34:55;20.20;93.90
58469;DHT22;44257;44.804;10.220;2023-04-16T10:37:31;20.20;93.90
58469;DHT22;44257;44.804;10.220;2023-04-16T10:39:58;20.10;92.70
58469;DHT22;44257;44.804;10.220;2023-04-16T10:42:27;20.10;93.80
58469;DHT22;44257;44.804;10.220;2023-04-16T10:44:52;20.10;92.90
58469;DHT22;44257;44.804;10.220;2023-04-16T10:47:18;20.20;92.30
58469;DHT22;44257;44.804;10.220;2023-04-16T10:49:46;20.20;92.10
58469;DHT22;44257;44.804;10.220;2023-04-16T10:52:13;20.20;93.40
58469;DHT22;44257;44.804;10.220;2023-04-16T10:54:41;20.20;93.20
58469;DHT22;44257;44.804;10.220;2023-04-16T10:57:18;20.20;93.30
58469;DHT22;44257;44.804;10.220;2023-04-16T10:59:45;20.40;93.90
58469;DHT22;44257;44.804;10.220;2023-04-16T11:02:15;20.50;92.80
58469;DHT22;44257;44.804;10.220;2023-04-16T11:04:43;20.60;93.40
58469;DHT22;44257;44.804;10.220;2023-04-16T11:07:19;20.60;92.80
58469;DHT22;44257;44.804;10.220;2023-04-16T11:10:05;20.60;92.80
58469;DHT22;44257;44.804;10.220;2023-04-16T11:12:41;20.50;92.40
58469;DHT22;44257;44.804;10.220;2023-04-16T11:15:15;20.50;91.60
58469;DHT22;44257;44.804;10.220;2023-04-16T11:22:41;20.50;92.40
58469;DHT22;44257;44.804;10.220;2023-04-16T11:25:07;20.60;92.30
58469;DHT22;44257;44.804;10.220;2023-04-16T11:27:33;20.60;91.10
58469;DHT22;44257;44.804;10.220;2023-04-16T11:30:00;20.40;91.60
58469;DHT22;44257;44.804;10.220;2023-04-16T11:32:27;20.40;90.90
58469;DHT22;44257;44.804;10.220;2023-04-16T11:34:55;20.30;90.60
58469;DHT22;44257;44.804;10.220;2023-04-16T11:37:34;20.20;90.40
58469;DHT22;44257;44.804;10.220;2023-04-16T11:40:01;20.30;90.20
58469;DHT22;44257;44.804;10.220;2023-04-16T11:42:29;20.30;90.60
58469;DHT22;44257;44.804;10.220;2023-04-16T11:44:57;20.40;86.70
58469;DHT22;44257;44.804;10.220;2023-04-16T11:47:25;20.40;87.60
58469;DHT22;44257;44.804;10.220;2023-04-16T11:49:51;20.30;89.60
58469;DHT22;44257;44.804;10.220;2023-04-16T11:52:25;20.40;90.80
58469;DHT22;44257;44.804;10.220;2023-04-16T11:54:52;20.50;89.50
58469;DHT22;44257;44.804;10.220;2023-04-16T11:57:28;20.60;89.80
58469;DHT22;44257;44.804;10.220;2023-04-16T11:59:55;20.80;90.80
58469;DHT22;44257;44.804;10.220;2023-04-16T12:02:38;20.80;90.00
58469;DHT22;44257;44.804;10.220;2023-04-16T12:07:57;21.00;85.70
58469;DHT22;44257;44.804;10.220;2023-04-16T12:10:24;20.90;89.70
58469;DHT22;44257;44.804;10.220;2023-04-16T12:12:50;21.00;86.10
58469;DHT22;44257;44.804;10.220;2023-04-16T12:15:16;20.90;85.20
58469;DHT22;44257;44.804;10.220;2023-04-16T12:17:42;20.90;87.10
58469;DHT22;44257;44.804;10.220;2023-04-16T12:22:35;20.90;88.10
58469;DHT22;44257;44.804;10.220;2023-04-16T12:25:06;20.90;85.40
58469;DHT22;44257;44.804;10.220;2023-04-16T12:27:48;21.00;85.10
58469;DHT22;44257;44.804;10.220;2023-04-16T12:30:19;21.00;86.80
58469;DHT22;44257;44.804;10.220;2023-04-16T12:32:50;21.10;87.20
58469;DHT22;44257;44.804;10.220;2023-04-16T12:35:32;21.10;86.50
58469;DHT22;44257;44.804;10.220;2023-04-16T12:37:59;21.20;86.20
58469;DHT22;44257;44.804;10.220;2023-04-16T12:40:25;21.30;87.40
58469;DHT22;44257;44.804;10.220;2023-04-16T12:42:52;21.40;86.30
58469;DHT22;44257;44.804;10.220;2023-04-16T12:45:17;21.50;83.80
58469;DHT22;44257;44.804;10.220;2023-04-16T12:47:43;21.50;82.90
58469;DHT22;44257;44.804;10.220;2023-04-16T12:50:09;21.40;78.00
58469;DHT22;44257;44.804;10.220;2023-04-16T12:52:35;21.40;82.40
58469;DHT22;44257;44.804;10.220;2023-04-16T12:55:01;21.50;78.80
58469;DHT22;44257;44.804;10.220;2023-04-16T12:57:27;21.50;82.00
58469;DHT22;44257;44.804;10.220;2023-04-16T12:59:54;21.50;80.40
58469;DHT22;44257;44.804;10.220;2023-04-16T13:02:21;21.60;80.60
58469;DHT22;44257;44.804;10.220;2023-04-16T13:04:48;21.60;77.50
58469;DHT22;44257;44.804;10.220;2023-04-16T13:07:14;21.70;79.00
58469;DHT22;44257;44.804;10.220;2023-04-16T13:09:41;21.70;82.00
58469;DHT22;44257;44.804;10.220;2023-04-16T13:12:07;21.70;80.60
58469;DHT22;44257;44.804;10.220;2023-04-16T13:14:33;21.90;77.30
58469;DHT22;44257;44.804;10.220;2023-04-16T13:16:59;21.80;74.40
58469;DHT22;44257;44.804;10.220;2023-04-16T13:19:25;21.80;79.70
58469;DHT22;44257;44.804;10.220;2023-04-16T13:21:52;21.90;79.30
58469;DHT22;44257;44.804;10.220;2023-04-16T13:24:18;21.90;76.50
58469;DHT22;44257;44.804;10.220;2023-04-16T13:26:44;21.90;77.40
58469;DHT22;44257;44.804;10.220;2023-04-16T13:29:10;22.00;80.00
58469;DHT22;44257;44.804;10.220;2023-04-16T13:31:36;22.10;76.70
58469;DHT22;44257;44.804;10.220;2023-04-16T13:34:02;22.20;77.60
58469;DHT22;44257;44.804;10.220;2023-04-16T13:36:29;22.10;70.30
58469;DHT22;44257;44.804;10.220;2023-04-16T13:38:57;22.00;74.30
58469;DHT22;44257;44.804;10.220;2023-04-16T13:41:23;21.90;75.80
58469;DHT22;44257;44.804;10.220;2023-04-16T13:43:49;21.80;77.00
58469;DHT22;44257;44.804;10.220;2023-04-16T13:46:14;21.80;74.90
58469;DHT22;44257;44.804;10.220;2023-04-16T13:48:40;21.90;72.90
58469;DHT22;44257;44.804;10.220;2023-04-16T13:51:06;22.00;74.30
58469;DHT22;44257;44.804;10.220;2023-04-16T13:53:33;21.90;74.20
58469;DHT22;44257;44.804;10.220;2023-04-16T13:55:59;21.90;69.40
58469;DHT22;44257;44.804;10.220;2023-04-16T13:58:25;21.90;66.50
58469;DHT22;44257;44.804;10.220;2023-04-16T14:00:50;21.90;65.10
58469;DHT22;44257;44.804;10.220;2023-04-16T14:03:16;21.90;67.80
58469;DHT22;44257;44.804;10.220;2023-04-16T14:05:42;21.80;71.40
58469;DHT22;44257;44.804;10.220;2023-04-16T14:08:08;22.00;74.30
58469;DHT22;44257;44.804;10.220;2023-04-16T14:10:34;22.10;75.00
58469;DHT22;44257;44.804;10.220;2023-04-16T14:13:00;22.30;72.90
58469;DHT22;44257;44.804;10.220;2023-04-16T14:15:26;22.30;71.70
58469;DHT22;44257;44.804;10.220;2023-04-16T14:17:54;22.30;71.10
58469;DHT22;44257;44.804;10.220;2023-04-16T14:20:20;22.40;73.60
58469;DHT22;44257;44.804;10.220;2023-04-16T14:22:46;22.40;73.90
58469;DHT22;44257;44.804;10.220;2023-04-16T14:25:12;22.30;72.20
58469;DHT22;44257;44.804;10.220;2023-04-16T14:27:38;22.30;73.00
58469;DHT22;44257;44.804;10.220;2023-04-16T14:30:05;22.40;72.60
58469;DHT22;44257;44.804;10.220;2023-04-16T14:32:31;22.40;71.30
58469;DHT22;44257;44.804;10.220;2023-04-16T14:34:57;22.30;68.90
58469;DHT22;44257;44.804;10.220;2023-04-16T14:37:23;22.30;70.80
58469;DHT22;44257;44.804;10.220;2023-04-16T14:39:49;22.40;69.60
58469;DHT22;44257;44.804;10.220;2023-04-16T14:42:15;22.40;69.00
58469;DHT22;44257;44.804;10.220;2023-04-16T14:44:41;22.30;68.70
58469;DHT22;44257;44.804;10.220;2023-04-16T14:47:07;22.30;69.60
58469;DHT22;44257;44.804;10.220;2023-04-16T14:49:33;22.20;68.70
58469;DHT22;44257;44.804;10.220;2023-04-16T14:52:00;22.30;67.70
58469;DHT22;44257;44.804;10.220;2023-04-16T14:54:30;22.30;66.60
58469;DHT22;44257;44.804;10.220;2023-04-16T14:56:57;22.30;67.10
58469;DHT22;44257;44.804;10.220;2023-04-16T14:59:23;22.20;71.70
58469;DHT22;44257;44.804;10.220;2023-04-16T15:01:49;22.20;72.10
58469;DHT22;44257;44.804;10.220;2023-04-16T15:04:15;22.20;71.60
58469;DHT22;44257;44.804;10.220;2023-04-16T15:06:41;22.20;72.60
58469;DHT22;44257;44.804;10.220;2023-04-16T15:09:07;22.20;73.00
58469;DHT22;44257;44.804;10.220;2023-04-16T15:11:33;22.30;71.10
58469;DHT22;44257;44.804;10.220;2023-04-16T15:13:59;22.40;70.60
58469;DHT22;44257;44.804;10.220;2023-04-16T15:16:25;22.40;72.20
58469;DHT22;44257;44.804;10.220;2023-04-16T15:18:51;22.50;71.50
58469;DHT22;44257;44.804;10.220;2023-04-16T15:21:17;22.60;69.80
58469;DHT22;44257;44.804;10.220;2023-04-16T15:23:43;22.40;69.80
58469;DHT22;44257;44.804;10.220;2023-04-16T15:26:09;22.30;69.40
58469;DHT22;44257;44.804;10.220;2023-04-16T15:28:35;22.10;69.50
58469;DHT22;44257;44.804;10.220;2023-04-16T15:31:02;21.90;70.10